createdAt,value
2022-07-28T00:00:29.669Z,55021.58
2022-07-28T00:01:32.424Z,55019.58
2022-07-28T00:02:35.180Z,55157.93
2022-07-28T00:03:37.878Z,55213.07
2022-07-28T00:04:40.544Z,55198.04
2022-07-28T00:05:43.318Z,55165.95
2022-07-28T00:06:46.094Z,55102.79
2022-07-28T00:07:48.761Z,55085.75
2022-07-28T00:08:51.633Z,55155.93
2022-07-28T00:09:59.853Z,55197.04
2022-07-28T00:10:58.818Z,55219.09
2022-07-28T00:12:01.689Z,55136.88
2022-07-28T00:13:06.912Z,55048.65
2022-07-28T00:14:08.773Z,55072.71
2022-07-28T00:15:11.546Z,55155.93
2022-07-28T00:16:14.269Z,55248.16
2022-07-28T00:17:16.888Z,55165.95
2022-07-28T00:18:19.661Z,55018.57
2022-07-28T00:19:22.328Z,55011.56
2022-07-28T00:20:25.003Z,55088.75
2022-07-28T00:21:27.677Z,55098.78
2022-07-28T00:22:30.338Z,55113.82
2022-07-28T00:23:37.622Z,55109.81
2022-07-28T00:24:37.213Z,55188.01
2022-07-28T00:25:39.983Z,55076.72
2022-07-28T00:26:42.960Z,55110.81
2022-07-28T00:27:46.243Z,55126.85
2022-07-28T00:28:49.119Z,55076.72
2022-07-28T00:29:51.890Z,55080.73
2022-07-28T00:30:54.767Z,55052.66
2022-07-28T00:31:57.986Z,55115.82
2022-07-28T00:33:00.928Z,55167.96
2022-07-28T00:34:03.901Z,55186.00
2022-07-28T00:35:08.307Z,55168.96
2022-07-28T00:36:12.047Z,55186.00
2022-07-28T00:37:15.321Z,55116.83
2022-07-28T00:38:18.371Z,55060.68
2022-07-28T00:39:21.079Z,55095.77
2022-07-28T00:40:23.915Z,55161.95
2022-07-28T00:41:26.694Z,55042.64
2022-07-28T00:42:29.767Z,54987.50
2022-07-28T00:43:32.475Z,55005.54
2022-07-28T00:44:35.116Z,55021.58
2022-07-28T00:45:37.953Z,55028.60
2022-07-28T00:46:40.710Z,54952.41
2022-07-28T00:47:43.423Z,54994.52
2022-07-28T00:48:46.053Z,54972.46
2022-07-28T00:49:48.778Z,54912.31
2022-07-28T00:50:51.534Z,54877.22
2022-07-28T00:51:54.309Z,54927.34
2022-07-28T00:52:57.078Z,54889.25
2022-07-28T00:53:59.745Z,54811.05
2022-07-28T00:55:02.703Z,54849.15
2022-07-28T00:56:06.965Z,54606.55
2022-07-28T00:57:09.604Z,54637.63
2022-07-28T00:58:12.270Z,54585.50
2022-07-28T00:59:15.050Z,54435.13
2022-07-28T01:00:17.853Z,54192.56
2022-07-28T01:01:20.563Z,54031.19
2022-07-28T01:02:23.392Z,53930.96
2022-07-28T01:03:26.449Z,53945.99
2022-07-28T01:04:29.124Z,53822.71
2022-07-28T01:05:43.311Z,53864.81
2022-07-28T01:06:35.880Z,53870.82
2022-07-28T01:07:38.551Z,53767.59
2022-07-28T01:08:41.627Z,53748.55
2022-07-28T01:09:44.303Z,53759.57
2022-07-28T01:10:46.977Z,53866.81
2022-07-28T01:11:49.642Z,53785.63
2022-07-28T01:12:52.209Z,53690.42
2022-07-28T01:13:54.983Z,53718.48
2022-07-28T01:14:57.650Z,53725.50
2022-07-28T01:16:00.508Z,53709.46
2022-07-28T01:17:03.509Z,53762.58
2022-07-28T01:18:06.482Z,53726.50
2022-07-28T01:19:09.480Z,53690.42
2022-07-28T01:20:12.339Z,53638.30
2022-07-28T01:21:15.233Z,53626.28
2022-07-28T01:22:17.989Z,53639.30
2022-07-28T01:23:20.757Z,53544.10
2022-07-28T01:24:24.953Z,53597.21
2022-07-28T01:25:27.623Z,53601.22
2022-07-28T01:26:30.295Z,53605.23
2022-07-28T01:27:32.969Z,53525.05
2022-07-28T01:28:35.735Z,53495.99
2022-07-28T01:29:38.508Z,53507.02
2022-07-28T01:30:41.386Z,53505.01
2022-07-28T01:31:44.522Z,53510.02
2022-07-28T01:32:47.439Z,53537.08
2022-07-28T01:33:50.319Z,53551.11
2022-07-28T01:34:53.301Z,53470.94
2022-07-28T01:35:56.271Z,53435.86
2022-07-28T01:36:59.248Z,53426.84
2022-07-28T01:38:02.232Z,53503.01
2022-07-28T01:39:05.101Z,53553.12
2022-07-28T01:40:07.989Z,53526.06
2022-07-28T01:41:10.847Z,53502.01
2022-07-28T01:42:14.132Z,53480.96
2022-07-28T01:43:17.208Z,53519.04
2022-07-28T01:44:20.195Z,53427.85
2022-07-28T01:45:23.063Z,53466.93
2022-07-28T01:46:26.174Z,53442.88
2022-07-28T01:47:29.034Z,53448.89
2022-07-28T01:48:32.030Z,53398.79
2022-07-28T01:49:34.767Z,53401.79
2022-07-28T01:50:37.538Z,53392.77
2022-07-28T01:51:40.318Z,53366.72
2022-07-28T01:52:43.081Z,53350.68
2022-07-28T01:53:45.852Z,53364.71
2022-07-28T01:54:49.117Z,53357.70
2022-07-28T01:55:52.015Z,53368.72
2022-07-28T01:56:54.888Z,53379.74
2022-07-28T01:57:57.662Z,53411.81
2022-07-28T01:59:00.327Z,53340.66
2022-07-28T02:00:03.207Z,53294.56
2022-07-28T02:01:05.922Z,53288.55
2022-07-28T02:02:08.706Z,53264.50
2022-07-28T02:03:11.418Z,53374.73
2022-07-28T02:04:14.480Z,53349.68
2022-07-28T02:05:19.233Z,53367.72
2022-07-28T02:06:21.574Z,53392.77
2022-07-28T02:07:24.145Z,53369.72
2022-07-28T02:08:26.811Z,53338.66
2022-07-28T02:09:29.581Z,53344.67
2022-07-28T02:10:32.360Z,53378.74
2022-07-28T02:11:35.026Z,53374.73
2022-07-28T02:12:37.701Z,53408.80
2022-07-28T02:13:40.474Z,53395.78
2022-07-28T02:14:43.045Z,53403.80
2022-07-28T02:15:45.796Z,53325.63
2022-07-28T02:16:48.785Z,53320.62
2022-07-28T02:17:51.566Z,53369.72
2022-07-28T02:18:54.130Z,53317.61
2022-07-28T02:19:56.902Z,53297.57
2022-07-28T02:20:59.569Z,53282.54
2022-07-28T02:22:02.337Z,53290.55
2022-07-28T02:23:05.328Z,53334.65
2022-07-28T02:24:08.192Z,53348.68
2022-07-28T02:25:11.167Z,53420.83
2022-07-28T02:26:14.146Z,53366.72
2022-07-28T02:27:17.338Z,53386.76
2022-07-28T02:28:20.204Z,53345.67
2022-07-28T02:29:49.195Z,53345.67
2022-07-28T02:30:27.297Z,53381.75
2022-07-28T02:31:29.893Z,53311.60
2022-07-28T02:32:32.619Z,53321.62
2022-07-28T02:33:59.421Z,53296.57
2022-07-28T02:34:39.907Z,53260.49
2022-07-28T02:35:43.906Z,53298.57
2022-07-28T02:36:48.421Z,53310.60
2022-07-28T02:37:51.507Z,53338.66
2022-07-28T02:38:54.377Z,53341.66
2022-07-28T02:40:00.266Z,53240.45
2022-07-28T02:41:01.774Z,53220.41
2022-07-28T02:42:04.740Z,53224.41
2022-07-28T02:43:07.923Z,53211.39
2022-07-28T02:44:11.418Z,53192.35
2022-07-28T02:45:14.495Z,53260.49
2022-07-28T02:46:17.506Z,53226.42
2022-07-28T02:47:20.445Z,53241.45
2022-07-28T02:48:23.372Z,53262.50
2022-07-28T02:49:25.990Z,53240.45
2022-07-28T02:50:28.967Z,53204.37
2022-07-28T02:51:31.634Z,53192.35
2022-07-28T02:52:34.310Z,53212.39
2022-07-28T02:53:37.182Z,53180.32
2022-07-28T02:54:39.951Z,53187.34
2022-07-28T02:55:42.936Z,53181.32
2022-07-28T02:56:53.343Z,53209.38
2022-07-28T02:57:54.732Z,53174.31
2022-07-28T02:58:55.254Z,53177.32
2022-07-28T02:59:58.117Z,53211.39
2022-07-28T03:01:01.031Z,53248.46
2022-07-28T03:02:03.866Z,53159.28
2022-07-28T03:03:06.848Z,53217.40
2022-07-28T03:04:09.815Z,53215.40
2022-07-28T03:05:12.764Z,53161.29
2022-07-28T03:06:15.465Z,53161.29
2022-07-28T03:07:18.340Z,53145.25
2022-07-28T03:08:21.324Z,53222.41
2022-07-28T03:09:24.815Z,53165.29
2022-07-28T03:10:33.695Z,53164.29
2022-07-28T03:11:31.787Z,53140.24
2022-07-28T03:12:34.563Z,53136.23
2022-07-28T03:13:37.329Z,53180.32
2022-07-28T03:14:40.107Z,53178.32
2022-07-28T03:15:42.768Z,53203.37
2022-07-28T03:16:45.535Z,53088.13
2022-07-28T03:17:48.227Z,53077.11
2022-07-28T03:18:50.878Z,53093.14
2022-07-28T03:19:53.663Z,53153.27
2022-07-28T03:20:56.327Z,53175.31
2022-07-28T03:21:59.000Z,53170.30
2022-07-28T03:23:01.759Z,53163.29
2022-07-28T03:24:04.645Z,53172.31
2022-07-28T03:25:07.925Z,53116.19
2022-07-28T03:26:10.799Z,53146.25
2022-07-28T03:27:13.569Z,53165.29
2022-07-28T03:28:16.446Z,53169.30
2022-07-28T03:29:19.223Z,53188.34
2022-07-28T03:30:22.515Z,53174.31
2022-07-28T03:31:25.176Z,53170.30
2022-07-28T03:32:28.150Z,53126.21
2022-07-28T03:33:30.921Z,53087.13
2022-07-28T03:34:35.032Z,53045.04
2022-07-28T03:35:37.794Z,53060.07
2022-07-28T03:36:40.469Z,53099.16
2022-07-28T03:37:43.751Z,53098.15
2022-07-28T03:38:46.628Z,53096.15
2022-07-28T03:39:49.608Z,53068.09
2022-07-28T03:40:52.588Z,53040.04
2022-07-28T03:41:56.991Z,53053.06
2022-07-28T03:43:00.079Z,53066.09
2022-07-28T03:44:02.946Z,53030.02
2022-07-28T03:45:05.826Z,53077.11
2022-07-28T03:46:13.162Z,53072.10
2022-07-28T03:47:14.130Z,53011.98
2022-07-28T03:48:17.103Z,53003.96
2022-07-28T03:49:20.058Z,53023.00
2022-07-28T03:50:22.960Z,53012.98
2022-07-28T03:51:25.745Z,53004.96
2022-07-28T03:52:28.505Z,53003.96
2022-07-28T03:53:31.604Z,52970.89
2022-07-28T03:54:34.265Z,52987.93
2022-07-28T03:55:36.926Z,52987.93
2022-07-28T03:56:39.587Z,52967.89
2022-07-28T03:57:42.670Z,52967.89
2022-07-28T03:58:45.543Z,52977.91
2022-07-28T03:59:48.314Z,52993.94
2022-07-28T04:00:51.044Z,52976.91
2022-07-28T04:01:53.880Z,53007.97
2022-07-28T04:02:56.711Z,53019.99
2022-07-28T04:03:59.306Z,53018.99
2022-07-28T04:05:01.870Z,53031.02
2022-07-28T04:06:04.652Z,52997.95
2022-07-28T04:07:07.314Z,53000.95
2022-07-28T04:08:10.908Z,53004.96
2022-07-28T04:09:13.684Z,52990.93
2022-07-28T04:10:16.348Z,52997.95
2022-07-28T04:11:19.352Z,53005.96
2022-07-28T04:12:22.203Z,52985.92
2022-07-28T04:13:25.790Z,52972.90
2022-07-28T04:14:28.573Z,53000.95
2022-07-28T04:15:31.242Z,52972.90
2022-07-28T04:16:34.040Z,52975.91
2022-07-28T04:17:36.788Z,52968.89
2022-07-28T04:18:39.591Z,52968.89
2022-07-28T04:19:42.436Z,52977.91
2022-07-28T04:20:45.400Z,52971.89
2022-07-28T04:21:48.187Z,52956.86
2022-07-28T04:22:51.049Z,52982.92
2022-07-28T04:23:57.234Z,52983.92
2022-07-28T04:24:58.121Z,53002.96
2022-07-28T04:26:00.795Z,52979.91
2022-07-28T04:27:03.779Z,52970.89
2022-07-28T04:28:06.547Z,52968.89
2022-07-28T04:29:09.319Z,52945.84
2022-07-28T04:30:12.087Z,52957.87
2022-07-28T04:31:14.868Z,52985.92
2022-07-28T04:32:17.634Z,52973.90
2022-07-28T04:33:20.633Z,52959.87
2022-07-28T04:34:23.593Z,52956.86
2022-07-28T04:35:26.053Z,52960.88
2022-07-28T04:36:28.929Z,52933.82
2022-07-28T04:37:33.341Z,52964.88
2022-07-28T04:38:36.108Z,52949.85
2022-07-28T04:39:38.789Z,52967.89
2022-07-28T04:40:41.564Z,53015.98
2022-07-28T04:41:44.319Z,52941.84
2022-07-28T04:42:47.301Z,52959.87
2022-07-28T04:43:50.395Z,52950.85
2022-07-28T04:44:53.360Z,52960.88
2022-07-28T04:45:56.594Z,52953.86
2022-07-28T04:46:59.839Z,52926.80
2022-07-28T04:48:02.906Z,52914.78
2022-07-28T04:49:06.061Z,52911.77
2022-07-28T04:50:09.165Z,52947.85
2022-07-28T04:51:12.141Z,52954.86
2022-07-28T04:52:15.024Z,52918.79
2022-07-28T04:53:17.891Z,52917.79
2022-07-28T04:54:26.323Z,52928.81
2022-07-28T04:55:25.069Z,52991.94
2022-07-28T04:56:28.052Z,52947.85
2022-07-28T04:57:32.278Z,52955.86
2022-07-28T04:58:35.742Z,52950.85
2022-07-28T04:59:38.537Z,52934.82
2022-07-28T05:00:41.530Z,52941.84
2022-07-28T05:01:44.513Z,52940.83
2022-07-28T05:02:47.458Z,52906.77
2022-07-28T05:03:50.130Z,52895.74
2022-07-28T05:04:53.224Z,52884.72
2022-07-28T05:05:56.167Z,52942.84
2022-07-28T05:06:59.152Z,52981.92
2022-07-28T05:08:02.048Z,52950.85
2022-07-28T05:09:05.000Z,52935.82
2022-07-28T05:10:08.212Z,52916.79
2022-07-28T05:11:10.968Z,52910.77
2022-07-28T05:12:14.148Z,52917.79
2022-07-28T05:13:18.257Z,52869.69
2022-07-28T05:14:20.912Z,52895.74
2022-07-28T05:15:23.795Z,52935.82
2022-07-28T05:16:26.615Z,52900.75
2022-07-28T05:17:29.231Z,52945.84
2022-07-28T05:18:32.007Z,52950.85
2022-07-28T05:19:34.775Z,52923.80
2022-07-28T05:20:37.542Z,52921.79
2022-07-28T05:21:40.323Z,52922.80
2022-07-28T05:22:43.203Z,52883.72
2022-07-28T05:23:47.756Z,52885.72
2022-07-28T05:24:50.284Z,52897.75
2022-07-28T05:25:54.173Z,52929.81
2022-07-28T05:26:56.944Z,52961.87
2022-07-28T05:27:59.515Z,52990.93
2022-07-28T05:29:02.181Z,52927.80
2022-07-28T05:30:04.864Z,52933.82
2022-07-28T05:31:07.936Z,52916.79
2022-07-28T05:32:17.152Z,52916.79
2022-07-28T05:33:14.803Z,52907.77
2022-07-28T05:34:17.670Z,52911.77
2022-07-28T05:35:20.461Z,52922.80
2022-07-28T05:36:23.033Z,52890.73
2022-07-28T05:37:25.805Z,52917.79
2022-07-28T05:38:28.569Z,52908.77
2022-07-28T05:39:31.346Z,52937.83
2022-07-28T05:40:34.009Z,52880.71
2022-07-28T05:41:36.785Z,52968.89
2022-07-28T05:42:39.664Z,53000.95
2022-07-28T05:43:42.320Z,52939.83
2022-07-28T05:44:45.100Z,52989.93
2022-07-28T05:45:47.662Z,52971.89
2022-07-28T05:46:50.844Z,53009.97
2022-07-28T05:47:53.514Z,52969.89
2022-07-28T05:48:56.458Z,52975.91
2022-07-28T05:49:59.165Z,52984.92
2022-07-28T05:51:01.938Z,52969.89
2022-07-28T05:52:04.507Z,52994.94
2022-07-28T05:53:07.171Z,52983.92
2022-07-28T05:54:10.246Z,53040.04
2022-07-28T05:55:13.340Z,53014.98
2022-07-28T05:56:16.110Z,52983.92
2022-07-28T05:57:18.870Z,52980.91
2022-07-28T05:58:21.748Z,53010.98
2022-07-28T05:59:24.310Z,53009.97
2022-07-28T06:00:27.411Z,53011.98
2022-07-28T06:01:30.214Z,53037.03
2022-07-28T06:02:33.266Z,53019.99
2022-07-28T06:03:41.544Z,53006.97
2022-07-28T06:04:40.034Z,53047.05
2022-07-28T06:06:13.817Z,53011.98
2022-07-28T06:06:47.104Z,53026.01
2022-07-28T06:07:49.778Z,53023.00
2022-07-28T06:08:52.764Z,53030.02
2022-07-28T06:09:56.347Z,53035.02
2022-07-28T06:10:59.114Z,53035.02
2022-07-28T06:12:02.005Z,53074.11
2022-07-28T06:13:04.963Z,53003.96
2022-07-28T06:14:07.845Z,53050.05
2022-07-28T06:15:10.826Z,53048.05
2022-07-28T06:16:13.835Z,53048.05
2022-07-28T06:17:16.775Z,53019.99
2022-07-28T06:18:19.764Z,53017.99
2022-07-28T06:19:22.837Z,53026.01
2022-07-28T06:20:26.770Z,53052.06
2022-07-28T06:21:30.112Z,53073.10
2022-07-28T06:22:33.107Z,53050.05
2022-07-28T06:23:35.865Z,53052.06
2022-07-28T06:24:38.641Z,53017.99
2022-07-28T06:25:41.210Z,53064.08
2022-07-28T06:26:45.051Z,53080.12
2022-07-28T06:27:48.187Z,53087.13
2022-07-28T06:28:51.270Z,53153.27
2022-07-28T06:29:54.144Z,53146.25
2022-07-28T06:30:57.220Z,53162.29
2022-07-28T06:32:00.370Z,53148.26
2022-07-28T06:33:04.707Z,53131.22
2022-07-28T06:34:07.688Z,53186.34
2022-07-28T06:35:10.685Z,53159.28
2022-07-28T06:36:13.324Z,53110.18
2022-07-28T06:37:15.999Z,53134.23
2022-07-28T06:38:18.660Z,53136.23
2022-07-28T06:39:22.694Z,53170.30
2022-07-28T06:40:25.359Z,53210.39
2022-07-28T06:41:28.127Z,53210.39
2022-07-28T06:42:30.882Z,53235.44
2022-07-28T06:43:38.292Z,53221.41
2022-07-28T06:44:57.913Z,53239.45
2022-07-28T06:45:42.283Z,53242.45
2022-07-28T06:46:45.007Z,53269.51
2022-07-28T06:47:47.526Z,53264.50
2022-07-28T06:48:50.797Z,53290.55
2022-07-28T06:49:53.872Z,53246.46
2022-07-28T06:50:56.753Z,53234.44
2022-07-28T06:51:59.741Z,53198.36
2022-07-28T06:53:02.924Z,53226.42
2022-07-28T06:54:11.207Z,53214.39
2022-07-28T06:55:11.944Z,53196.36
2022-07-28T06:56:16.866Z,53164.29
2022-07-28T06:57:19.837Z,53165.29
2022-07-28T06:58:22.603Z,53204.37
2022-07-28T06:59:25.373Z,53217.40
2022-07-28T07:00:28.509Z,53192.35
2022-07-28T07:01:31.316Z,53215.40
2022-07-28T07:02:34.122Z,53197.36
2022-07-28T07:03:36.772Z,53164.29
2022-07-28T07:04:39.602Z,53154.27
2022-07-28T07:05:42.637Z,53161.29
2022-07-28T07:06:45.390Z,53169.30
2022-07-28T07:07:48.280Z,53186.34
2022-07-28T07:08:51.045Z,53212.39
2022-07-28T07:09:53.819Z,53178.32
2022-07-28T07:10:56.491Z,53195.36
2022-07-28T07:12:00.149Z,53212.39
2022-07-28T07:13:03.465Z,53179.32
2022-07-28T07:14:06.129Z,53200.37
2022-07-28T07:15:08.907Z,53217.40
2022-07-28T07:16:11.947Z,53218.40
2022-07-28T07:17:14.770Z,53201.37
2022-07-28T07:18:17.435Z,53168.30
2022-07-28T07:19:20.101Z,53190.34
2022-07-28T07:20:22.789Z,53215.40
2022-07-28T07:21:25.442Z,53199.36
2022-07-28T07:22:28.923Z,53178.32
2022-07-28T07:23:31.803Z,53204.37
2022-07-28T07:24:34.377Z,53189.34
2022-07-28T07:25:37.040Z,53194.35
2022-07-28T07:26:39.716Z,53176.32
2022-07-28T07:27:42.402Z,53176.32
2022-07-28T07:28:45.057Z,53215.40
2022-07-28T07:29:47.928Z,53205.37
2022-07-28T07:30:50.791Z,53174.31
2022-07-28T07:31:53.971Z,53210.39
2022-07-28T07:32:56.852Z,53169.30
2022-07-28T07:33:59.939Z,53203.37
2022-07-28T07:35:02.600Z,53214.39
2022-07-28T07:36:05.468Z,53179.32
2022-07-28T07:37:08.479Z,53190.34
2022-07-28T07:38:11.442Z,53233.43
2022-07-28T07:39:14.413Z,53203.37
2022-07-28T07:40:17.283Z,53158.28
2022-07-28T07:41:19.958Z,53198.36
2022-07-28T07:42:24.686Z,53197.36
2022-07-28T07:43:26.943Z,53174.31
2022-07-28T07:44:29.629Z,53195.36
2022-07-28T07:45:32.371Z,53192.35
2022-07-28T07:46:35.927Z,53211.39
2022-07-28T07:47:38.865Z,53182.33
2022-07-28T07:48:41.575Z,53188.34
2022-07-28T07:49:46.075Z,53184.33
2022-07-28T07:50:53.410Z,53206.38
2022-07-28T07:51:52.706Z,53206.38
2022-07-28T07:52:56.827Z,53185.34
2022-07-28T07:53:59.678Z,53178.32
2022-07-28T07:55:02.550Z,53191.35
2022-07-28T07:56:05.522Z,53206.38
2022-07-28T07:57:08.498Z,53211.39
2022-07-28T07:58:11.691Z,53192.35
2022-07-28T07:59:14.668Z,53210.39
2022-07-28T08:00:29.313Z,53207.38
2022-07-28T08:01:22.042Z,53196.36
2022-07-28T08:02:24.928Z,53176.32
2022-07-28T08:03:27.894Z,53186.34
2022-07-28T08:04:30.729Z,53222.41
2022-07-28T08:05:35.765Z,53238.45
2022-07-28T08:06:37.543Z,53191.35
2022-07-28T08:07:42.164Z,53193.35
2022-07-28T08:08:48.406Z,53203.37
2022-07-28T08:09:49.753Z,53230.43
2022-07-28T08:10:52.621Z,53216.40
2022-07-28T08:11:55.602Z,53193.35
2022-07-28T08:12:58.482Z,53219.41
2022-07-28T08:14:02.484Z,53214.39
2022-07-28T08:15:05.252Z,53242.45
2022-07-28T08:16:08.285Z,53255.48
2022-07-28T08:17:11.204Z,53245.46
2022-07-28T08:18:14.182Z,53288.55
2022-07-28T08:19:17.166Z,53271.52
2022-07-28T08:20:21.708Z,53279.53
2022-07-28T08:21:24.546Z,53280.54
2022-07-28T08:22:27.520Z,53282.54
2022-07-28T08:23:30.208Z,53320.62
2022-07-28T08:24:34.384Z,53295.57
2022-07-28T08:25:37.272Z,53289.55
2022-07-28T08:26:39.950Z,53308.59
2022-07-28T08:27:42.721Z,53357.70
2022-07-28T08:28:45.392Z,53315.61
2022-07-28T08:29:48.673Z,53326.63
2022-07-28T08:30:51.723Z,53341.66
2022-07-28T08:31:54.647Z,53302.58
2022-07-28T08:32:57.504Z,53324.63
2022-07-28T08:34:00.482Z,53332.64
2022-07-28T08:35:31.130Z,53341.66
2022-07-28T08:36:07.864Z,53375.73
2022-07-28T08:37:11.056Z,53374.73
2022-07-28T08:38:14.025Z,53399.79
2022-07-28T08:39:16.802Z,53374.73
2022-07-28T08:40:22.436Z,53348.68
2022-07-28T08:41:24.291Z,53349.68
2022-07-28T08:42:26.967Z,53371.73
2022-07-28T08:43:29.641Z,53365.71
2022-07-28T08:44:32.606Z,53378.74
2022-07-28T08:45:37.235Z,53398.79
2022-07-28T08:46:39.789Z,53394.77
2022-07-28T08:48:06.264Z,53401.79
2022-07-28T08:48:47.137Z,53413.82
2022-07-28T08:49:50.068Z,53426.84
2022-07-28T08:50:52.935Z,53433.86
2022-07-28T08:51:55.802Z,53442.88
2022-07-28T08:52:58.714Z,53414.82
2022-07-28T08:54:02.574Z,53461.92
2022-07-28T08:55:06.387Z,53434.86
2022-07-28T08:56:09.451Z,53471.94
2022-07-28T08:57:12.318Z,53444.88
2022-07-28T08:58:15.302Z,53459.91
2022-07-28T08:59:18.079Z,53478.96
2022-07-28T09:00:21.055Z,53464.93
2022-07-28T09:01:23.772Z,53463.93
2022-07-28T09:02:26.570Z,53481.96
2022-07-28T09:03:29.491Z,53486.97
2022-07-28T09:04:32.131Z,53469.94
2022-07-28T09:05:34.802Z,53454.91
2022-07-28T09:06:37.701Z,53472.95
2022-07-28T09:07:40.350Z,53519.04
2022-07-28T09:08:43.588Z,53493.99
2022-07-28T09:09:46.299Z,53507.02
2022-07-28T09:10:49.076Z,53537.08
2022-07-28T09:11:51.741Z,53495.99
2022-07-28T09:12:54.311Z,53522.05
2022-07-28T09:13:57.192Z,53480.96
2022-07-28T09:15:00.162Z,53497.00
2022-07-28T09:16:03.192Z,53479.96
2022-07-28T09:17:06.230Z,53506.02
2022-07-28T09:18:09.445Z,53480.96
2022-07-28T09:19:12.385Z,53484.97
2022-07-28T09:20:15.366Z,53521.05
2022-07-28T09:21:21.009Z,53508.02
2022-07-28T09:22:23.880Z,53512.03
2022-07-28T09:23:42.353Z,53522.05
2022-07-28T09:24:30.854Z,53564.14
2022-07-28T09:25:33.532Z,53527.06
2022-07-28T09:26:36.298Z,53511.03
2022-07-28T09:27:39.275Z,53563.14
2022-07-28T09:28:41.946Z,53535.08
2022-07-28T09:29:44.713Z,53545.10
2022-07-28T09:30:53.680Z,53559.13
2022-07-28T09:31:57.106Z,53531.07
2022-07-28T09:32:56.206Z,53540.09
2022-07-28T09:34:04.625Z,53547.11
2022-07-28T09:35:07.483Z,53538.09
2022-07-28T09:36:10.364Z,53597.21
2022-07-28T09:37:13.331Z,53564.14
2022-07-28T09:38:17.965Z,53555.12
2022-07-28T09:39:20.827Z,53559.13
2022-07-28T09:40:23.803Z,53600.22
2022-07-28T09:41:26.692Z,53577.17
2022-07-28T09:42:29.768Z,53572.16
2022-07-28T09:43:32.322Z,53553.12
2022-07-28T09:44:35.301Z,53572.16
2022-07-28T09:45:43.911Z,53535.08
2022-07-28T09:46:46.894Z,53571.16
2022-07-28T09:47:50.332Z,53537.08
2022-07-28T09:48:53.661Z,53559.13
2022-07-28T09:49:56.735Z,53557.12
2022-07-28T09:50:59.528Z,53536.08
2022-07-28T09:52:02.389Z,53536.08
2022-07-28T09:53:05.367Z,53558.13
2022-07-28T09:54:08.444Z,53539.09
2022-07-28T09:55:11.321Z,53575.17
2022-07-28T09:56:14.193Z,53583.18
2022-07-28T09:57:17.070Z,53568.15
2022-07-28T09:58:19.849Z,53595.21
2022-07-28T09:59:24.662Z,53564.14
2022-07-28T10:00:29.071Z,53568.15
2022-07-28T10:01:36.808Z,53579.18
2022-07-28T10:02:38.116Z,53589.20
2022-07-28T10:03:41.561Z,53597.21
2022-07-28T10:04:44.539Z,53619.26
2022-07-28T10:05:53.494Z,53593.21
2022-07-28T10:06:52.245Z,53571.16
2022-07-28T10:07:55.208Z,53537.08
2022-07-28T10:08:58.300Z,53571.16
2022-07-28T10:10:01.477Z,53592.20
2022-07-28T10:11:04.680Z,53596.21
2022-07-28T10:12:07.733Z,53565.14
2022-07-28T10:13:10.922Z,53610.24
2022-07-28T10:14:14.612Z,53573.16
2022-07-28T10:15:18.011Z,53590.20
2022-07-28T10:16:22.710Z,53617.26
2022-07-28T10:17:25.897Z,53587.19
2022-07-28T10:18:31.634Z,53583.18
2022-07-28T10:19:34.510Z,53586.19
2022-07-28T10:20:42.913Z,53589.20
2022-07-28T10:21:45.899Z,53595.21
2022-07-28T10:22:48.772Z,53605.23
2022-07-28T10:23:54.405Z,53610.24
2022-07-28T10:24:57.707Z,53601.22
2022-07-28T10:26:03.249Z,53650.33
2022-07-28T10:27:07.661Z,53599.22
2022-07-28T10:28:11.042Z,53709.46
2022-07-28T10:29:14.104Z,53708.46
2022-07-28T10:30:20.163Z,53693.43
2022-07-28T10:31:23.356Z,53657.34
2022-07-28T10:32:29.179Z,53620.27
2022-07-28T10:33:31.951Z,53641.31
2022-07-28T10:34:41.182Z,53662.36
2022-07-28T10:35:48.480Z,53669.37
2022-07-28T10:36:48.562Z,53665.36
2022-07-28T10:37:52.867Z,53679.39
2022-07-28T10:38:55.953Z,53679.39
2022-07-28T10:39:58.929Z,53665.36
2022-07-28T10:41:04.774Z,53670.37
2022-07-28T10:42:07.963Z,53663.36
2022-07-28T10:43:11.241Z,53660.35
2022-07-28T10:44:14.792Z,53712.47
2022-07-28T10:45:17.808Z,53687.41
2022-07-28T10:46:33.197Z,53684.41
2022-07-28T10:47:36.587Z,53690.42
2022-07-28T10:48:39.417Z,53675.39
2022-07-28T10:49:42.209Z,53716.48
2022-07-28T10:50:45.497Z,53698.44
2022-07-28T10:52:02.446Z,53693.43
2022-07-28T10:52:57.525Z,53693.43
2022-07-28T10:53:57.493Z,53681.40
2022-07-28T10:55:03.139Z,53657.34
2022-07-28T10:56:06.110Z,53716.48
2022-07-28T10:57:11.954Z,53710.46
2022-07-28T10:58:14.930Z,53695.43
2022-07-28T11:00:54.584Z,53653.34
2022-07-28T11:01:50.180Z,53665.36
2022-07-28T11:02:45.698Z,53716.48
2022-07-28T11:03:49.057Z,53737.52
2022-07-28T11:04:52.164Z,53730.51
2022-07-28T11:05:55.225Z,53729.50
2022-07-28T11:06:58.213Z,53716.48
2022-07-28T11:08:01.179Z,53771.60
2022-07-28T11:09:06.927Z,53737.52
2022-07-28T11:10:12.967Z,53734.52
2022-07-28T11:11:15.845Z,53727.50
2022-07-28T11:12:24.764Z,53746.54
2022-07-28T11:13:29.311Z,53714.47
2022-07-28T11:14:32.456Z,53713.47
2022-07-28T11:15:38.298Z,53729.50
2022-07-28T11:16:41.184Z,53748.55
2022-07-28T11:17:43.850Z,53705.45
2022-07-28T11:18:48.155Z,53737.52
2022-07-28T11:21:00.553Z,53726.50
2022-07-28T11:22:03.760Z,53715.47
2022-07-28T11:23:10.710Z,53723.49
2022-07-28T11:24:19.418Z,53712.47
2022-07-28T11:25:23.069Z,53735.52
2022-07-28T11:26:28.861Z,53737.52
2022-07-28T11:27:31.731Z,53727.50
2022-07-28T11:28:34.709Z,53764.58
2022-07-28T11:29:40.452Z,53737.52
2022-07-28T11:30:46.115Z,53777.61
2022-07-28T11:31:51.936Z,53772.60
2022-07-28T11:32:54.811Z,53786.63
2022-07-28T11:33:57.584Z,53751.55
2022-07-28T11:35:06.604Z,53804.67
2022-07-28T11:36:09.681Z,53805.68
2022-07-28T11:37:15.214Z,53818.70
2022-07-28T11:38:17.578Z,53803.67
2022-07-28T11:39:26.191Z,53805.68
2022-07-28T11:40:29.270Z,53822.71
2022-07-28T11:41:32.045Z,53797.66
2022-07-28T11:42:36.765Z,53793.65
2022-07-28T11:43:43.123Z,53795.65
2022-07-28T11:44:46.097Z,53753.56
2022-07-28T11:45:55.781Z,53806.68
2022-07-28T11:46:57.477Z,53767.59
2022-07-28T11:48:03.425Z,53751.55
2022-07-28T11:49:06.367Z,53786.63
2022-07-28T11:50:13.452Z,53795.65
2022-07-28T11:51:16.253Z,53794.65
2022-07-28T11:52:20.153Z,53820.71
2022-07-28T11:53:23.326Z,53839.75
2022-07-28T11:54:29.168Z,53831.73
2022-07-28T11:55:55.510Z,53834.74
2022-07-28T11:56:39.317Z,53830.73
2022-07-28T11:57:42.199Z,53807.68
2022-07-28T11:58:47.847Z,53861.80
2022-07-28T12:00:03.112Z,53815.70
2022-07-28T12:01:06.088Z,53841.75
2022-07-28T12:02:10.555Z,53793.65
2022-07-28T12:03:13.365Z,53825.72
2022-07-28T12:04:16.379Z,53848.77
2022-07-28T12:05:19.420Z,53807.68
2022-07-28T12:06:29.095Z,53845.77
2022-07-28T12:07:26.806Z,53867.81
2022-07-28T12:08:31.118Z,53836.75
2022-07-28T12:09:41.918Z,53842.76
2022-07-28T12:10:55.430Z,53839.75
2022-07-28T12:11:42.929Z,53838.75
2022-07-28T12:12:45.587Z,53831.73
2022-07-28T12:13:51.119Z,53835.74
2022-07-28T12:15:07.361Z,53820.71
2022-07-28T12:16:10.451Z,53849.77
2022-07-28T12:17:13.506Z,53825.72
2022-07-28T12:18:16.864Z,53836.75
2022-07-28T12:19:20.131Z,53870.82
2022-07-28T12:20:23.218Z,53784.63
2022-07-28T12:21:27.725Z,53819.71
2022-07-28T12:22:32.243Z,53804.67
2022-07-28T12:23:38.920Z,53825.72
2022-07-28T12:24:45.986Z,53846.77
2022-07-28T12:25:44.553Z,53826.72